sensor_id;sensor_type;location;lat;lon;timestamp;pressure;altitude;pressure_sealevel;temperature;humidity
44934;BME280;30667;43.614;1.442;2022-12-29T00:02:21;100274.06;;;9.61;100.00
44934;BME280;30667;43.614;1.442;2022-12-29T00:04:49;100277.09;;;9.70;100.00
44934;BME280;30667;43.614;1.442;2022-12-29T00:07:14;100258.97;;;9.66;100.00
44934;BME280;30667;43.614;1.442;2022-12-29T00:09:40;100264.13;;;9.72;100.00
44934;BME280;30667;43.614;1.442;2022-12-29T00:12:05;100259.78;;;9.71;100.00
44934;BME280;30667;43.614;1.442;2022-12-29T00:14:31;100245.72;;;9.69;100.00
44934;BME280;30667;43.614;1.442;2022-12-29T00:17:14;100251.13;;;9.64;100.00
44934;BME280;30667;43.614;1.442;2022-12-29T00:19:40;100238.41;;;9.64;100.00
44934;BME280;30667;43.614;1.442;2022-12-29T00:22:24;100237.63;;;9.64;100.00
44934;BME280;30667;43.614;1.442;2022-12-29T00:25:10;100236.25;;;9.61;100.00
44934;BME280;30667;43.614;1.442;2022-12-29T00:27:54;100228.69;;;9.63;100.00
44934;BME280;30667;43.614;1.442;2022-12-29T00:30:38;100231.66;;;9.62;100.00
44934;BME280;30667;43.614;1.442;2022-12-29T00:33:26;100227.09;;;9.73;100.00
44934;BME280;30667;43.614;1.442;2022-12-29T00:36:18;100223.00;;;9.65;100.00
44934;BME280;30667;43.614;1.442;2022-12-29T00:39:14;100227.34;;;9.66;100.00
44934;BME280;30667;43.614;1.442;2022-12-29T00:42:04;100230.06;;;9.66;100.00
44934;BME280;30667;43.614;1.442;2022-12-29T00:44:48;100238.69;;;9.68;100.00
44934;BME280;30667;43.614;1.442;2022-12-29T00:47:13;100231.41;;;9.69;100.00
44934;BME280;30667;43.614;1.442;2022-12-29T00:49:38;100235.47;;;9.71;100.00
44934;BME280;30667;43.614;1.442;2022-12-29T00:52:09;100243.56;;;9.66;100.00
44934;BME280;30667;43.614;1.442;2022-12-29T00:54:37;100245.72;;;9.69;100.00
44934;BME280;30667;43.614;1.442;2022-12-29T00:57:03;100240.06;;;9.71;100.00
44934;BME280;30667;43.614;1.442;2022-12-29T00:59:29;100230.59;;;9.68;100.00
44934;BME280;30667;43.614;1.442;2022-12-29T01:01:55;100231.94;;;9.66;100.00
44934;BME280;30667;43.614;1.442;2022-12-29T01:04:22;100231.16;;;9.86;100.00
44934;BME280;30667;43.614;1.442;2022-12-29T01:06:49;100229.53;;;9.69;100.00
44934;BME280;30667;43.614;1.442;2022-12-29T01:09:15;100226.81;;;9.74;100.00
44934;BME280;30667;43.614;1.442;2022-12-29T01:11:59;100217.91;;;9.69;100.00
44934;BME280;30667;43.614;1.442;2022-12-29T01:14:25;100219.25;;;9.66;100.00
44934;BME280;30667;43.614;1.442;2022-12-29T01:16:51;100227.63;;;9.64;100.00
44934;BME280;30667;43.614;1.442;2022-12-29T01:19:17;100221.94;;;9.66;100.00
44934;BME280;30667;43.614;1.442;2022-12-29T01:21:43;100221.16;;;9.66;100.00
44934;BME280;30667;43.614;1.442;2022-12-29T01:24:08;100222.78;;;9.87;100.00
44934;BME280;30667;43.614;1.442;2022-12-29T01:26:34;100216.03;;;9.74;100.00
44934;BME280;30667;43.614;1.442;2022-12-29T01:28:59;100222.53;;;9.73;100.00
44934;BME280;30667;43.614;1.442;2022-12-29T01:31:25;100217.69;;;9.91;100.00
44934;BME280;30667;43.614;1.442;2022-12-29T01:33:50;100217.13;;;9.94;100.00
44934;BME280;30667;43.614;1.442;2022-12-29T01:36:16;100221.44;;;9.79;100.00
44934;BME280;30667;43.614;1.442;2022-12-29T01:38:43;100223.31;;;9.74;100.00
44934;BME280;30667;43.614;1.442;2022-12-29T01:41:12;100217.91;;;9.74;100.00
44934;BME280;30667;43.614;1.442;2022-12-29T01:43:53;100220.88;;;9.67;100.00
44934;BME280;30667;43.614;1.442;2022-12-29T01:46:30;100220.88;;;9.67;100.00
44934;BME280;30667;43.614;1.442;2022-12-29T01:51:31;100223.28;;;9.63;100.00
44934;BME280;30667;43.614;1.442;2022-12-29T01:54:02;100226.25;;;9.62;100.00
44934;BME280;30667;43.614;1.442;2022-12-29T01:56:30;100225.72;;;9.65;100.00
44934;BME280;30667;43.614;1.442;2022-12-29T01:59:01;100222.47;;;9.63;100.00
44934;BME280;30667;43.614;1.442;2022-12-29T02:01:27;100222.47;;;9.63;100.00
44934;BME280;30667;43.614;1.442;2022-12-29T02:03:53;100227.41;;;9.81;100.00
44934;BME280;30667;43.614;1.442;2022-12-29T02:06:26;100222.81;;;9.92;100.00
44934;BME280;30667;43.614;1.442;2022-12-29T02:08:55;100216.06;;;9.85;100.00
44934;BME280;30667;43.614;1.442;2022-12-29T02:11:21;100217.38;;;9.82;100.00
44934;BME280;30667;43.614;1.442;2022-12-29T02:13:48;100220.34;;;9.75;100.00
44934;BME280;30667;43.614;1.442;2022-12-29T02:28:03;100203.59;;;9.78;100.00
44934;BME280;30667;43.614;1.442;2022-12-29T02:36:24;100210.13;;;9.88;100.00
44934;BME280;30667;43.614;1.442;2022-12-29T02:46:44;100220.94;;;10.08;100.00
44934;BME280;30667;43.614;1.442;2022-12-29T02:51:53;100217.91;;;9.79;100.00
44934;BME280;30667;43.614;1.442;2022-12-29T02:54:20;100212.56;;;9.89;100.00
44934;BME280;30667;43.614;1.442;2022-12-29T02:59:42;100203.59;;;9.78;100.00
44934;BME280;30667;43.614;1.442;2022-12-29T03:11:12;100189.00;;;9.79;100.00
44934;BME280;30667;43.614;1.442;2022-12-29T03:14:08;100180.88;;;9.74;100.00
44934;BME280;30667;43.614;1.442;2022-12-29T03:16:59;100177.94;;;9.76;100.00
44934;BME280;30667;43.614;1.442;2022-12-29T03:19:32;100180.66;;;9.86;100.00
44934;BME280;30667;43.614;1.442;2022-12-29T03:24:50;100181.47;;;10.02;100.00
44934;BME280;30667;43.614;1.442;2022-12-29T03:27:21;100177.16;;;9.91;100.00
44934;BME280;30667;43.614;1.442;2022-12-29T03:29:52;100178.50;;;10.09;100.00
44934;BME280;30667;43.614;1.442;2022-12-29T03:32:22;100184.72;;;10.04;100.00
44934;BME280;30667;43.614;1.442;2022-12-29T03:34:49;100184.97;;;10.13;100.00
44934;BME280;30667;43.614;1.442;2022-12-29T03:37:18;100190.94;;;9.99;100.00
44934;BME280;30667;43.614;1.442;2022-12-29T03:39:46;100189.03;;;9.95;100.00
44934;BME280;30667;43.614;1.442;2022-12-29T03:42:15;100187.13;;;9.90;100.00
44934;BME280;30667;43.614;1.442;2022-12-29T03:44:43;100191.72;;;9.90;100.00
44934;BME280;30667;43.614;1.442;2022-12-29T03:47:11;100196.88;;;9.86;100.00
44934;BME280;30667;43.614;1.442;2022-12-29T03:49:37;100194.97;;;9.87;100.00
44934;BME280;30667;43.614;1.442;2022-12-29T03:52:03;100193.91;;;9.88;100.00
44934;BME280;30667;43.614;1.442;2022-12-29T03:54:29;100192.28;;;9.87;100.00
44934;BME280;30667;43.614;1.442;2022-12-29T03:56:55;100195.50;;;9.89;100.00
44934;BME280;30667;43.614;1.442;2022-12-29T03:59:20;100196.06;;;9.96;100.00
44934;BME280;30667;43.614;1.442;2022-12-29T04:01:45;100199.31;;;9.98;100.00
44934;BME280;30667;43.614;1.442;2022-12-29T04:04:11;100194.16;;;10.07;100.00
44934;BME280;30667;43.614;1.442;2022-12-29T04:06:37;100199.31;;;10.03;100.00
44934;BME280;30667;43.614;1.442;2022-12-29T04:09:02;100193.63;;;10.05;100.00
44934;BME280;30667;43.614;1.442;2022-12-29T04:11:28;100192.81;;;10.09;100.00
44934;BME280;30667;43.614;1.442;2022-12-29T04:13:53;100194.16;;;10.07;100.00
44934;BME280;30667;43.614;1.442;2022-12-29T04:16:18;100197.16;;;10.10;100.00
44934;BME280;30667;43.614;1.442;2022-12-29T04:18:44;100186.88;;;10.17;100.00
44934;BME280;30667;43.614;1.442;2022-12-29T04:21:09;100183.63;;;10.26;100.00
44934;BME280;30667;43.614;1.442;2022-12-29T04:23:37;100194.19;;;10.17;100.00
44934;BME280;30667;43.614;1.442;2022-12-29T04:26:03;100196.34;;;10.46;100.00
44934;BME280;30667;43.614;1.442;2022-12-29T04:28:29;100204.22;;;10.42;100.00
44934;BME280;30667;43.614;1.442;2022-12-29T04:30:55;100193.38;;;10.47;100.00
44934;BME280;30667;43.614;1.442;2022-12-29T04:33:20;100185.81;;;10.39;100.00
44934;BME280;30667;43.614;1.442;2022-12-29T04:35:47;100190.91;;;10.30;100.00
44934;BME280;30667;43.614;1.442;2022-12-29T04:38:12;100194.16;;;10.27;100.00
44934;BME280;30667;43.614;1.442;2022-12-29T04:40:39;100200.13;;;10.24;100.00
44934;BME280;30667;43.614;1.442;2022-12-29T04:43:06;100196.88;;;10.22;100.00
44934;BME280;30667;43.614;1.442;2022-12-29T04:45:31;100204.72;;;10.13;100.00
44934;BME280;30667;43.614;1.442;2022-12-29T04:47:56;100202.84;;;10.09;100.00
44934;BME280;30667;43.614;1.442;2022-12-29T04:50:22;100218.50;;;10.07;100.00
44934;BME280;30667;43.614;1.442;2022-12-29T04:52:47;100226.91;;;10.05;100.00
44934;BME280;30667;43.614;1.442;2022-12-29T04:55:13;100229.88;;;10.09;100.00
44934;BME280;30667;43.614;1.442;2022-12-29T04:57:38;100236.06;;;10.09;100.00
44934;BME280;30667;43.614;1.442;2022-12-29T05:00:04;100242.00;;;10.11;100.00
44934;BME280;30667;43.614;1.442;2022-12-29T05:02:30;100247.16;;;10.13;100.00
44934;BME280;30667;43.614;1.442;2022-12-29T05:04:56;100239.03;;;10.13;100.00
44934;BME280;30667;43.614;1.442;2022-12-29T05:07:21;100252.03;;;10.16;100.00
44934;BME280;30667;43.614;1.442;2022-12-29T05:09:47;100248.78;;;10.14;100.00
44934;BME280;30667;43.614;1.442;2022-12-29T05:12:12;100250.97;;;10.12;100.00
44934;BME280;30667;43.614;1.442;2022-12-29T05:14:38;100253.66;;;10.12;100.00
44934;BME280;30667;43.614;1.442;2022-12-29T05:17:03;100256.38;;;10.12;100.00
44934;BME280;30667;43.614;1.442;2022-12-29T05:19:29;100242.84;;;10.12;100.00
44934;BME280;30667;43.614;1.442;2022-12-29T05:21:55;100239.03;;;10.13;100.00
44934;BME280;30667;43.614;1.442;2022-12-29T05:24:21;100245.28;;;10.18;100.00
44934;BME280;30667;43.614;1.442;2022-12-29T05:26:46;100245.81;;;10.21;100.00
44934;BME280;30667;43.614;1.442;2022-12-29T05:29:11;100238.25;;;10.28;100.00
44934;BME280;30667;43.614;1.442;2022-12-29T05:31:37;100234.78;;;10.32;100.00
44934;BME280;30667;43.614;1.442;2022-12-29T05:34:02;100230.72;;;10.35;100.00
44934;BME280;30667;43.614;1.442;2022-12-29T05:36:28;100241.78;;;10.33;100.00
44934;BME280;30667;43.614;1.442;2022-12-29T05:38:54;100244.22;;;10.30;100.00
44934;BME280;30667;43.614;1.442;2022-12-29T05:41:19;100254.50;;;10.28;100.00
44934;BME280;30667;43.614;1.442;2022-12-29T05:43:44;100246.91;;;10.25;100.00
44934;BME280;30667;43.614;1.442;2022-12-29T05:46:10;100255.81;;;10.25;100.00
44934;BME280;30667;43.614;1.442;2022-12-29T05:48:36;100249.09;;;10.33;100.00
44934;BME280;30667;43.614;1.442;2022-12-29T05:51:01;100250.16;;;10.32;100.00
44934;BME280;30667;43.614;1.442;2022-12-29T05:53:26;100258.03;;;10.44;100.00
44934;BME280;30667;43.614;1.442;2022-12-29T05:55:52;100242.09;;;10.37;100.00
44934;BME280;30667;43.614;1.442;2022-12-29T05:58:17;100239.09;;;10.33;100.00
44934;BME280;30667;43.614;1.442;2022-12-29T06:00:43;100238.03;;;10.34;100.00
44934;BME280;30667;43.614;1.442;2022-12-29T06:03:09;100235.03;;;10.36;100.00
44934;BME280;30667;43.614;1.442;2022-12-29T06:05:35;100242.03;;;10.32;100.00
44934;BME280;30667;43.614;1.442;2022-12-29T06:08:00;100241.50;;;10.30;100.00
44934;BME280;30667;43.614;1.442;2022-12-29T06:10:25;100238.53;;;10.26;100.00
44934;BME280;30667;43.614;1.442;2022-12-29T06:12:51;100232.03;;;10.27;100.00
44934;BME280;30667;43.614;1.442;2022-12-29T06:15:17;100232.84;;;10.28;100.00
44934;BME280;30667;43.614;1.442;2022-12-29T06:17:42;100231.50;;;10.30;100.00
44934;BME280;30667;43.614;1.442;2022-12-29T06:20:09;100232.28;;;10.26;100.00
44934;BME280;30667;43.614;1.442;2022-12-29T06:22:35;100223.69;;;10.39;100.00
44934;BME280;30667;43.614;1.442;2022-12-29T06:25:01;100219.59;;;10.26;100.00
44934;BME280;30667;43.614;1.442;2022-12-29T06:27:27;100223.66;;;10.18;100.00
44934;BME280;30667;43.614;1.442;2022-12-29T06:29:52;100225.81;;;10.22;100.00
44934;BME280;30667;43.614;1.442;2022-12-29T06:32:18;100211.50;;;10.21;100.00
44934;BME280;30667;43.614;1.442;2022-12-29T06:34:43;100204.72;;;10.13;100.00
44934;BME280;30667;43.614;1.442;2022-12-29T06:37:10;100202.00;;;10.54;100.00
44934;BME280;30667;43.614;1.442;2022-12-29T06:39:35;100211.75;;;10.30;100.00
44934;BME280;30667;43.614;1.442;2022-12-29T06:42:01;100214.72;;;10.23;100.00
44934;BME280;30667;43.614;1.442;2022-12-29T06:44:26;100204.72;;;10.13;100.00
44934;BME280;30667;43.614;1.442;2022-12-29T06:46:51;100214.47;;;10.25;100.00
44934;BME280;30667;43.614;1.442;2022-12-29T06:49:17;100206.59;;;10.13;100.00
44934;BME280;30667;43.614;1.442;2022-12-29T06:51:43;100212.53;;;10.10;100.00
44934;BME280;30667;43.614;1.442;2022-12-29T06:54:08;100216.88;;;10.11;100.00
44934;BME280;30667;43.614;1.442;2022-12-29T06:56:34;100199.56;;;10.07;100.00
44934;BME280;30667;43.614;1.442;2022-12-29T06:58:59;100205.28;;;10.05;100.00
44934;BME280;30667;43.614;1.442;2022-12-29T07:01:28;100208.50;;;10.02;100.00
44934;BME280;30667;43.614;1.442;2022-12-29T07:03:53;100204.16;;;10.06;100.00
44934;BME280;30667;43.614;1.442;2022-12-29T07:06:19;100215.53;;;10.03;100.00
44934;BME280;30667;43.614;1.442;2022-12-29T07:08:44;100206.59;;;10.03;100.00
44934;BME280;30667;43.614;1.442;2022-12-29T07:11:10;100208.50;;;10.02;100.00
44934;BME280;30667;43.614;1.442;2022-12-29T07:13:36;100217.97;;;9.99;100.00
44934;BME280;30667;43.614;1.442;2022-12-29T07:16:08;100202.00;;;9.98;100.00
44934;BME280;30667;43.614;1.442;2022-12-29T07:18:34;100206.34;;;9.99;100.00
44934;BME280;30667;43.614;1.442;2022-12-29T07:21:00;100210.13;;;9.98;100.00
44934;BME280;30667;43.614;1.442;2022-12-29T07:23:25;100208.22;;;9.98;100.00
44934;BME280;30667;43.614;1.442;2022-12-29T07:26:05;100213.63;;;9.98;100.00
44934;BME280;30667;43.614;1.442;2022-12-29T07:28:32;100216.63;;;10.02;100.00
44934;BME280;30667;43.614;1.442;2022-12-29T07:30:58;100226.34;;;10.03;100.00
44934;BME280;30667;43.614;1.442;2022-12-29T07:33:24;100221.75;;;10.70;100.00
44934;BME280;30667;43.614;1.442;2022-12-29T07:35:49;100232.06;;;10.38;100.00
44934;BME280;30667;43.614;1.442;2022-12-29T07:38:15;100237.97;;;10.24;100.00
44934;BME280;30667;43.614;1.442;2022-12-29T07:40:41;100239.34;;;10.16;100.00
44934;BME280;30667;43.614;1.442;2022-12-29T07:43:06;100239.34;;;10.16;100.00
44934;BME280;30667;43.614;1.442;2022-12-29T07:45:32;100240.69;;;10.14;100.00
44934;BME280;30667;43.614;1.442;2022-12-29T07:47:57;100239.88;;;10.18;100.00
44934;BME280;30667;43.614;1.442;2022-12-29T07:50:23;100239.59;;;10.15;100.00
44934;BME280;30667;43.614;1.442;2022-12-29T07:52:48;100251.75;;;10.17;100.00
44934;BME280;30667;43.614;1.442;2022-12-29T07:55:14;100250.69;;;10.18;100.00
44934;BME280;30667;43.614;1.442;2022-12-29T07:57:40;100252.06;;;10.21;100.00
44934;BME280;30667;43.614;1.442;2022-12-29T08:00:06;100254.75;;;10.21;100.00
44934;BME280;30667;43.614;1.442;2022-12-29T08:02:31;100259.34;;;10.21;100.00
44934;BME280;30667;43.614;1.442;2022-12-29T08:04:57;100251.75;;;10.23;100.00
44934;BME280;30667;43.614;1.442;2022-12-29T08:07:22;100257.16;;;10.23;100.00
44934;BME280;30667;43.614;1.442;2022-12-29T08:09:48;100251.81;;;10.33;100.00
44934;BME280;30667;43.614;1.442;2022-12-29T08:12:13;100255.28;;;10.28;100.00
44934;BME280;30667;43.614;1.442;2022-12-29T08:14:38;100249.88;;;10.28;100.00
44934;BME280;30667;43.614;1.442;2022-12-29T08:17:04;100251.50;;;10.29;100.00
44934;BME280;30667;43.614;1.442;2022-12-29T08:19:29;100247.44;;;10.32;100.00
44934;BME280;30667;43.614;1.442;2022-12-29T08:21:55;100248.31;;;10.32;100.00
44934;BME280;30667;43.614;1.442;2022-12-29T08:24:20;100242.91;;;10.32;100.00
44934;BME280;30667;43.614;1.442;2022-12-29T08:26:46;100248.84;;;10.50;100.00
44934;BME280;30667;43.614;1.442;2022-12-29T08:29:11;100244.78;;;10.52;100.00
44934;BME280;30667;43.614;1.442;2022-12-29T08:31:37;100247.47;;;10.47;100.00
44934;BME280;30667;43.614;1.442;2022-12-29T08:34:03;100250.19;;;10.47;100.00
44934;BME280;30667;43.614;1.442;2022-12-29T08:36:29;100248.81;;;10.45;100.00
44934;BME280;30667;43.614;1.442;2022-12-29T08:38:54;100250.47;;;10.46;100.00
44934;BME280;30667;43.614;1.442;2022-12-29T08:41:20;100249.63;;;10.56;100.00
44934;BME280;30667;43.614;1.442;2022-12-29T08:43:46;100245.31;;;10.49;100.00
44934;BME280;30667;43.614;1.442;2022-12-29T08:46:12;100246.13;;;10.50;100.00
44934;BME280;30667;43.614;1.442;2022-12-29T08:48:37;100249.13;;;10.48;100.00
44934;BME280;30667;43.614;1.442;2022-12-29T08:51:03;100249.66;;;10.50;100.00
44934;BME280;30667;43.614;1.442;2022-12-29T08:53:28;100246.69;;;10.52;100.00
44934;BME280;30667;43.614;1.442;2022-12-29T08:55:57;100249.63;;;10.61;100.00
44934;BME280;30667;43.614;1.442;2022-12-29T08:58:22;100257.47;;;10.62;100.00
44934;BME280;30667;43.614;1.442;2022-12-29T09:00:48;100248.00;;;10.65;100.00
44934;BME280;30667;43.614;1.442;2022-12-29T09:03:13;100251.25;;;10.72;100.00
44934;BME280;30667;43.614;1.442;2022-12-29T09:05:38;100253.97;;;10.67;100.00
44934;BME280;30667;43.614;1.442;2022-12-29T09:08:04;100249.06;;;10.69;100.00
44934;BME280;30667;43.614;1.442;2022-12-29T09:10:30;100245.03;;;10.66;100.00
44934;BME280;30667;43.614;1.442;2022-12-29T09:12:55;100245.56;;;10.73;100.00
44934;BME280;30667;43.614;1.442;2022-12-29T09:15:21;100240.66;;;10.91;100.00
44934;BME280;30667;43.614;1.442;2022-12-29T09:17:46;100241.75;;;10.85;100.00
44934;BME280;30667;43.614;1.442;2022-12-29T09:20:14;100245.81;;;10.82;100.00
44934;BME280;30667;43.614;1.442;2022-12-29T09:22:40;100236.06;;;10.81;100.00
44934;BME280;30667;43.614;1.442;2022-12-29T09:25:06;100235.53;;;10.84;100.00
44934;BME280;30667;43.614;1.442;2022-12-29T09:27:33;100230.09;;;10.95;100.00
44934;BME280;30667;43.614;1.442;2022-12-29T09:29:58;100229.03;;;10.90;100.00
44934;BME280;30667;43.614;1.442;2022-12-29T09:32:24;100222.22;;;11.03;100.00
44934;BME280;30667;43.614;1.442;2022-12-29T09:34:52;100221.97;;;11.00;100.00
44934;BME280;30667;43.614;1.442;2022-12-29T09:37:18;100221.44;;;10.98;100.00
44934;BME280;30667;43.614;1.442;2022-12-29T09:39:43;100222.25;;;10.98;100.00
44934;BME280;30667;43.614;1.442;2022-12-29T09:45:15;100217.34;;;11.11;100.00
44934;BME280;30667;43.614;1.442;2022-12-29T09:47:45;100215.44;;;11.06;100.00
44934;BME280;30667;43.614;1.442;2022-12-29T09:50:21;100208.66;;;11.14;100.00
44934;BME280;30667;43.614;1.442;2022-12-29T09:52:58;100209.75;;;11.07;100.00
44934;BME280;30667;43.614;1.442;2022-12-29T09:55:45;100212.47;;;11.07;100.00
44934;BME280;30667;43.614;1.442;2022-12-29T09:58:19;100217.31;;;11.05;100.00
44934;BME280;30667;43.614;1.442;2022-12-29T10:00:55;100217.28;;;11.21;100.00
44934;BME280;30667;43.614;1.442;2022-12-29T10:03:24;100217.84;;;11.18;100.00
44934;BME280;30667;43.614;1.442;2022-12-29T10:08:44;100212.16;;;11.14;100.00
44934;BME280;30667;43.614;1.442;2022-12-29T10:17:24;100197.69;;;11.44;100.00
44934;BME280;30667;43.614;1.442;2022-12-29T10:25:16;100203.31;;;11.53;100.00
44934;BME280;30667;43.614;1.442;2022-12-29T10:27:47;100202.50;;;11.53;100.00
44934;BME280;30667;43.614;1.442;2022-12-29T10:30:14;100195.72;;;11.55;100.00
44934;BME280;30667;43.614;1.442;2022-12-29T10:32:45;100185.22;;;11.88;100.00
44934;BME280;30667;43.614;1.442;2022-12-29T10:35:28;100198.28;;;11.81;100.00
44934;BME280;30667;43.614;1.442;2022-12-29T10:38:25;100194.03;;;11.70;100.00
44934;BME280;30667;43.614;1.442;2022-12-29T10:41:02;100195.38;;;11.67;100.00
44934;BME280;30667;43.614;1.442;2022-12-29T10:43:44;100198.66;;;11.64;100.00
44934;BME280;30667;43.614;1.442;2022-12-29T10:46:15;100196.50;;;11.61;100.00
44934;BME280;30667;43.614;1.442;2022-12-29T10:48:43;100201.63;;;11.62;100.00
44934;BME280;30667;43.614;1.442;2022-12-29T10:51:26;100198.94;;;11.62;100.00
44934;BME280;30667;43.614;1.442;2022-12-29T10:58:54;100197.81;;;11.69;100.00
44934;BME280;30667;43.614;1.442;2022-12-29T11:01:22;100199.16;;;11.71;100.00
44934;BME280;30667;43.614;1.442;2022-12-29T11:06:27;100190.94;;;11.81;100.00
44934;BME280;30667;43.614;1.442;2022-12-29T11:09:22;100196.66;;;11.80;100.00
44934;BME280;30667;43.614;1.442;2022-12-29T11:11:50;100196.09;;;11.83;100.00
44934;BME280;30667;43.614;1.442;2022-12-29T11:14:29;100192.53;;;11.88;100.00
44934;BME280;30667;43.614;1.442;2022-12-29T11:17:00;100186.31;;;11.87;100.00
44934;BME280;30667;43.614;1.442;2022-12-29T11:19:29;100193.34;;;11.88;100.00
44934;BME280;30667;43.614;1.442;2022-12-29T11:22:20;100187.06;;;12.03;100.00
44934;BME280;30667;43.614;1.442;2022-12-29T11:24:47;100183.78;;;12.06;100.00
44934;BME280;30667;43.614;1.442;2022-12-29T11:27:17;100178.59;;;12.10;100.00
44934;BME280;30667;43.614;1.442;2022-12-29T11:29:44;100159.25;;;12.16;100.00
44934;BME280;30667;43.614;1.442;2022-12-29T11:32:12;100160.34;;;12.21;100.00
44934;BME280;30667;43.614;1.442;2022-12-29T11:34:42;100157.00;;;12.29;100.00
44934;BME280;30667;43.614;1.442;2022-12-29T11:40:25;100139.56;;;12.35;100.00
44934;BME280;30667;43.614;1.442;2022-12-29T11:42:54;100139.81;;;12.39;100.00
44934;BME280;30667;43.614;1.442;2022-12-29T11:45:29;100138.69;;;12.40;100.00
44934;BME280;30667;43.614;1.442;2022-12-29T11:50:28;100130.53;;;12.45;100.00
44934;BME280;30667;43.614;1.442;2022-12-29T11:53:04;100122.91;;;12.47;100.00
44934;BME280;30667;43.614;1.442;2022-12-29T11:55:31;100114.97;;;12.50;100.00
44934;BME280;30667;43.614;1.442;2022-12-29T11:58:00;100101.41;;;12.50;100.00
44934;BME280;30667;43.614;1.442;2022-12-29T12:00:28;100099.69;;;12.60;100.00
44934;BME280;30667;43.614;1.442;2022-12-29T12:03:11;100107.19;;;12.68;100.00
44934;BME280;30667;43.614;1.442;2022-12-29T12:06:10;100095.53;;;12.67;100.00
44934;BME280;30667;43.614;1.442;2022-12-29T12:08:48;100085.13;;;12.75;100.00
44934;BME280;30667;43.614;1.442;2022-12-29T12:11:25;100094.66;;;12.72;100.00
44934;BME280;30667;43.614;1.442;2022-12-29T12:14:08;100085.44;;;12.92;100.00
44934;BME280;30667;43.614;1.442;2022-12-29T12:16:43;100076.09;;;12.79;100.00
44934;BME280;30667;43.614;1.442;2022-12-29T12:19:21;100082.34;;;12.80;100.00
44934;BME280;30667;43.614;1.442;2022-12-29T12:22:00;100082.69;;;12.97;100.00
44934;BME280;30667;43.614;1.442;2022-12-29T12:24:44;100078.91;;;12.93;100.00
44934;BME280;30667;43.614;1.442;2022-12-29T12:27:20;100071.13;;;12.86;100.00
44934;BME280;30667;43.614;1.442;2022-12-29T12:35:46;100053.00;;;12.82;100.00
44934;BME280;30667;43.614;1.442;2022-12-29T12:38:55;100052.41;;;12.85;100.00
44934;BME280;30667;43.614;1.442;2022-12-29T12:52:13;100026.63;;;14.05;100.00
44934;BME280;30667;43.614;1.442;2022-12-29T12:57:46;100025.44;;;14.25;100.00
44934;BME280;30667;43.614;1.442;2022-12-29T13:00:16;100020.91;;;14.21;100.00
44934;BME280;30667;43.614;1.442;2022-12-29T13:13:59;100018.47;;;14.19;100.00
44934;BME280;30667;43.614;1.442;2022-12-29T13:19:34;100024.63;;;14.11;100.00
44934;BME280;30667;43.614;1.442;2022-12-29T13:25:29;100031.28;;;14.32;100.00
44934;BME280;30667;43.614;1.442;2022-12-29T13:28:12;100032.28;;;14.09;100.00
44934;BME280;30667;43.614;1.442;2022-12-29T13:30:56;100034.28;;;14.03;100.00
44934;BME280;30667;43.614;1.442;2022-12-29T13:36:10;100048.59;;;13.62;100.00
44934;BME280;30667;43.614;1.442;2022-12-29T13:38:48;100051.41;;;13.38;100.00
44934;BME280;30667;43.614;1.442;2022-12-29T13:41:35;100055.06;;;13.28;100.00
44934;BME280;30667;43.614;1.442;2022-12-29T13:44:04;100055.66;;;13.25;100.00
44934;BME280;30667;43.614;1.442;2022-12-29T13:46:39;100048.69;;;13.19;100.00
44934;BME280;30667;43.614;1.442;2022-12-29T13:49:15;100068.56;;;13.14;100.00
44934;BME280;30667;43.614;1.442;2022-12-29T13:51:53;100064.84;;;13.10;100.00
44934;BME280;30667;43.614;1.442;2022-12-29T13:54:57;100052.06;;;13.11;100.00
44934;BME280;30667;43.614;1.442;2022-12-29T14:00:20;100049.44;;;13.05;100.00
44934;BME280;30667;43.614;1.442;2022-12-29T14:07:46;100037.44;;;13.06;100.00
44934;BME280;30667;43.614;1.442;2022-12-29T14:10:35;100037.38;;;13.12;100.00
44934;BME280;30667;43.614;1.442;2022-12-29T14:13:19;100031.66;;;13.13;100.00
44934;BME280;30667;43.614;1.442;2022-12-29T14:15:51;100034.38;;;13.13;100.00
44934;BME280;30667;43.614;1.442;2022-12-29T14:18:26;100029.88;;;13.22;100.00
44934;BME280;30667;43.614;1.442;2022-12-29T14:21:20;100035.09;;;13.19;100.00
44934;BME280;30667;43.614;1.442;2022-12-29T14:23:50;100042.59;;;13.27;100.00
44934;BME280;30667;43.614;1.442;2022-12-29T14:28:53;100051.25;;;13.29;100.00
44934;BME280;30667;43.614;1.442;2022-12-29T14:36:37;100052.34;;;13.28;100.00
44934;BME280;30667;43.614;1.442;2022-12-29T14:39:05;100040.16;;;13.25;100.00
44934;BME280;30667;43.614;1.442;2022-12-29T14:41:59;100030.41;;;13.24;100.00
44934;BME280;30667;43.614;1.442;2022-12-29T14:44:25;100039.94;;;13.22;100.00
44934;BME280;30667;43.614;1.442;2022-12-29T14:49:22;100047.97;;;13.13;100.00
44934;BME280;30667;43.614;1.442;2022-12-29T14:51:52;100043.91;;;13.11;100.00
44934;BME280;30667;43.614;1.442;2022-12-29T14:57:06;100033.63;;;13.07;100.00
44934;BME280;30667;43.614;1.442;2022-12-29T14:59:34;100032.31;;;13.05;100.00
44934;BME280;30667;43.614;1.442;2022-12-29T15:02:04;100030.16;;;13.02;100.00
44934;BME280;30667;43.614;1.442;2022-12-29T15:04:36;100025.84;;;13.01;100.00
44934;BME280;30667;43.614;1.442;2022-12-29T15:07:07;100030.72;;;13.04;100.00
44934;BME280;30667;43.614;1.442;2022-12-29T15:09:46;100027.16;;;13.03;100.00
44934;BME280;30667;43.614;1.442;2022-12-29T15:12:38;100027.78;;;13.00;100.00
44934;BME280;30667;43.614;1.442;2022-12-29T15:15:26;100034.81;;;13.01;100.00